Time;durP1;ratioP1;P1;durP2;ratioP2;P2;SDS_P1;SDS_P2;PMS_P1;PMS_P2;Temp;Humidity;BMP_temperature;BMP_pressure;BME280_temperature;BME280_humidity;BME280_pressure;Samples;Min_cycle;Max_cycle;Signal;HPM_P1;HPM_P2
2022/05/16 00:01:08;;;;;;;11.00;2.92;;;;;;;;;;5052809;28;20219;-63
2022/05/16 00:03:34;;;;;;;12.18;3.00;;;;;;;;;;5054321;28;20261;-62
2022/05/16 00:05:59;;;;;;;9.43;2.90;;;;;;;;;;5054129;28;20615;-63
2022/05/16 00:08:24;;;;;;;11.63;3.30;;;;;;;;;;5052780;28;20207;-63
2022/05/16 00:10:49;;;;;;;11.10;2.70;;;;;;;;;;5053942;28;20763;-63
2022/05/16 00:13:15;;;;;;;11.80;3.05;;;;;;;;;;5053892;28;20207;-63
2022/05/16 00:15:40;;;;;;;11.07;2.92;;;;;;;;;;5049996;28;20242;-63
2022/05/16 00:18:06;;;;;;;9.48;2.95;;;;;;;;;;5053682;28;20203;-63
2022/05/16 00:20:32;;;;;;;11.40;3.33;;;;;;;;;;5053866;28;20218;-63
2022/05/16 00:22:57;;;;;;;10.27;3.10;;;;;;;;;;5053019;28;20233;-63
2022/05/16 00:25:22;;;;;;;9.68;3.58;;;;;;;;;;5053543;28;20215;-63
2022/05/16 00:27:47;;;;;;;10.98;2.75;;;;;;;;;;5053638;28;20215;-63
2022/05/16 00:30:13;;;;;;;8.90;2.97;;;;;;;;;;5052708;28;20314;-63
2022/05/16 00:32:39;;;;;;;11.43;3.20;;;;;;;;;;5046911;28;20217;-63
2022/05/16 00:35:04;;;;;;;14.10;3.47;;;;;;;;;;5033215;28;20238;-63
2022/05/16 00:37:30;;;;;;;10.68;2.83;;;;;;;;;;5032895;28;20212;-63
2022/05/16 00:39:55;;;;;;;10.43;2.92;;;;;;;;;;5033825;28;20204;-63
2022/05/16 00:42:20;;;;;;;10.02;2.80;;;;;;;;;;5033177;28;20211;-62
2022/05/16 00:44:45;;;;;;;8.68;2.90;;;;;;;;;;5032929;28;20543;-63
2022/05/16 00:47:11;;;;;;;8.57;2.60;;;;;;;;;;5035745;28;20337;-63
2022/05/16 00:49:37;;;;;;;10.52;3.00;;;;;;;;;;5053306;28;20251;-63
2022/05/16 00:52:03;;;;;;;10.68;2.95;;;;;;;;;;5034288;28;20681;-62
2022/05/16 00:54:36;;;;;;;13.20;3.75;;;;;;;;;;5053362;28;20230;-63
2022/05/16 00:57:03;;;;;;;14.07;3.03;;;;;;;;;;5034380;28;20215;-62
2022/05/16 00:59:31;;;;;;;9.88;3.08;;;;;;;;;;5053284;28;20260;-62
2022/05/16 01:04:49;;;;;;;8.65;2.50;;;;;;;;;;5052008;28;20272;-63
2022/05/16 01:07:18;;;;;;;8.60;2.75;;;;;;;;;;5052784;28;20213;-63
2022/05/16 01:09:43;;;;;;;11.15;3.33;;;;;;;;;;5035339;28;20219;-63
2022/05/16 01:12:09;;;;;;;11.40;3.35;;;;;;;;;;5051710;28;20215;-63
2022/05/16 01:14:42;;;;;;;12.60;3.25;;;;;;;;;;5050838;28;20249;-63
2022/05/16 01:17:08;;;;;;;10.13;2.78;;;;;;;;;;5032247;28;20254;-62
2022/05/16 01:19:33;;;;;;;9.70;3.10;;;;;;;;;;5014562;28;20215;-63
2022/05/16 01:21:59;;;;;;;12.10;3.40;;;;;;;;;;5032938;28;20702;-63
2022/05/16 01:24:25;;;;;;;8.40;3.22;;;;;;;;;;5032652;28;20291;-62
2022/05/16 01:26:52;;;;;;;12.60;3.10;;;;;;;;;;5032030;28;20721;-62
2022/05/16 01:29:19;;;;;;;8.85;3.42;;;;;;;;;;5031878;28;20208;-62
2022/05/16 01:31:45;;;;;;;11.00;3.28;;;;;;;;;;5032620;28;20235;-62
2022/05/16 01:34:10;;;;;;;12.88;3.72;;;;;;;;;;5050491;28;20246;-62
2022/05/16 01:39:38;;;;;;;10.13;3.03;;;;;;;;;;5037976;28;20656;-63
2022/05/16 01:42:03;;;;;;;12.13;3.58;;;;;;;;;;5031871;28;20291;-62
2022/05/16 01:44:29;;;;;;;13.15;3.35;;;;;;;;;;5031877;28;20212;-63
2022/05/16 01:46:54;;;;;;;9.60;3.10;;;;;;;;;;5046939;28;20208;-62
2022/05/16 01:49:19;;;;;;;11.02;3.28;;;;;;;;;;5012403;28;21255;-62
2022/05/16 01:51:44;;;;;;;10.68;3.33;;;;;;;;;;5012541;28;20204;-62
2022/05/16 01:54:10;;;;;;;13.45;3.88;;;;;;;;;;5011693;28;20271;-62
2022/05/16 01:56:35;;;;;;;9.38;3.30;;;;;;;;;;5012634;28;20212;-63
2022/05/16 01:59:01;;;;;;;11.65;3.67;;;;;;;;;;5011545;28;20671;-62
2022/05/16 02:01:27;;;;;;;10.13;3.50;;;;;;;;;;5011551;28;20294;-63
2022/05/16 02:03:52;;;;;;;9.55;3.90;;;;;;;;;;5012415;28;20668;-63
2022/05/16 02:06:17;;;;;;;14.43;4.05;;;;;;;;;;5011941;28;20677;-62
2022/05/16 02:08:43;;;;;;;10.25;3.63;;;;;;;;;;5011571;28;20216;-63
2022/05/16 02:11:09;;;;;;;13.95;3.33;;;;;;;;;;5011572;28;20217;-62
2022/05/16 02:13:35;;;;;;;10.38;3.55;;;;;;;;;;5011897;28;20881;-63
2022/05/16 02:16:01;;;;;;;12.13;3.50;;;;;;;;;;5013313;28;20220;-63
2022/05/16 02:18:26;;;;;;;8.50;3.30;;;;;;;;;;5012275;28;20327;-62
2022/05/16 02:20:51;;;;;;;12.70;3.90;;;;;;;;;;5012218;28;20258;-62
2022/05/16 02:26:01;;;;;;;12.15;3.65;;;;;;;;;;5011577;28;20212;-62
2022/05/16 02:28:27;;;;;;;13.07;3.85;;;;;;;;;;5010980;28;20208;-62
2022/05/16 02:30:52;;;;;;;10.07;3.60;;;;;;;;;;4994306;28;20222;-63
2022/05/16 02:33:18;;;;;;;12.68;3.50;;;;;;;;;;5034175;28;20203;-62
2022/05/16 02:35:43;;;;;;;12.30;3.67;;;;;;;;;;5051241;28;20581;-62
2022/05/16 02:38:09;;;;;;;13.90;3.58;;;;;;;;;;5050346;28;20218;-62
2022/05/16 02:40:34;;;;;;;13.90;3.85;;;;;;;;;;5051360;28;20241;-62
2022/05/16 02:42:59;;;;;;;10.95;3.90;;;;;;;;;;5050559;28;20207;-62
2022/05/16 02:45:25;;;;;;;11.45;3.35;;;;;;;;;;5050771;28;20217;-62
2022/05/16 02:47:51;;;;;;;11.48;3.78;;;;;;;;;;5042746;28;20208;-62
2022/05/16 02:50:17;;;;;;;10.48;3.85;;;;;;;;;;5030568;28;20251;-63
2022/05/16 02:52:42;;;;;;;12.65;3.30;;;;;;;;;;5031191;28;20252;-62
2022/05/16 02:55:08;;;;;;;11.35;3.63;;;;;;;;;;5030634;28;20286;-62
2022/05/16 02:57:33;;;;;;;10.52;3.63;;;;;;;;;;5030502;28;20653;-62
2022/05/16 02:59:58;;;;;;;13.98;3.95;;;;;;;;;;5031030;28;20253;-62
2022/05/16 03:02:23;;;;;;;13.88;3.63;;;;;;;;;;5030632;28;20724;-62
2022/05/16 03:04:49;;;;;;;12.00;3.83;;;;;;;;;;5030929;28;20216;-62
2022/05/16 03:07:14;;;;;;;9.32;3.67;;;;;;;;;;5030831;28;20594;-62
2022/05/16 03:09:39;;;;;;;11.77;4.25;;;;;;;;;;5012810;28;20676;-62
2022/05/16 03:12:05;;;;;;;13.15;4.03;;;;;;;;;;5030069;28;20671;-62
2022/05/16 03:14:31;;;;;;;11.05;3.70;;;;;;;;;;5031061;28;20770;-62
2022/05/16 03:16:56;;;;;;;8.88;3.50;;;;;;;;;;5011963;28;20238;-62
2022/05/16 03:19:21;;;;;;;14.88;4.15;;;;;;;;;;5010586;28;20219;-63
2022/05/16 03:21:46;;;;;;;10.20;4.03;;;;;;;;;;5011529;28;20207;-62
2022/05/16 03:24:12;;;;;;;12.27;4.07;;;;;;;;;;5010516;28;20586;-62
2022/05/16 03:26:37;;;;;;;12.15;3.58;;;;;;;;;;5011074;28;20291;-63
2022/05/16 03:29:02;;;;;;;15.02;4.45;;;;;;;;;;5010605;28;20264;-62
2022/05/16 03:31:28;;;;;;;11.10;3.80;;;;;;;;;;5010937;28;20221;-62
2022/05/16 03:33:53;;;;;;;11.60;4.00;;;;;;;;;;5010652;28;20212;-62
2022/05/16 03:36:18;;;;;;;11.45;3.60;;;;;;;;;;5011007;28;20688;-62
2022/05/16 03:41:27;;;;;;;12.40;4.00;;;;;;;;;;5010935;28;20744;-62
2022/05/16 03:43:52;;;;;;;11.85;4.15;;;;;;;;;;4993268;28;20295;-62
2022/05/16 03:46:18;;;;;;;13.05;3.90;;;;;;;;;;5010142;28;20220;-62
2022/05/16 03:48:43;;;;;;;11.77;4.22;;;;;;;;;;5011175;28;20236;-62
2022/05/16 03:51:09;;;;;;;11.60;4.07;;;;;;;;;;5012254;28;20251;-62
2022/05/16 03:53:36;;;;;;;12.32;4.00;;;;;;;;;;5014360;28;20212;-62
2022/05/16 03:56:01;;;;;;;10.32;4.00;;;;;;;;;;5014345;28;20703;-62
2022/05/16 03:58:27;;;;;;;9.48;3.90;;;;;;;;;;5013178;28;20218;-62
2022/05/16 04:00:52;;;;;;;10.98;3.65;;;;;;;;;;5024774;28;20746;-62
2022/05/16 04:03:17;;;;;;;11.43;3.78;;;;;;;;;;5034013;28;20248;-62
2022/05/16 04:05:42;;;;;;;10.70;4.20;;;;;;;;;;5032943;28;20208;-63
2022/05/16 04:08:08;;;;;;;11.50;3.83;;;;;;;;;;5033236;28;20255;-62
2022/05/16 04:10:33;;;;;;;11.50;4.28;;;;;;;;;;5034039;28;20220;-62
2022/05/16 04:12:58;;;;;;;11.20;4.15;;;;;;;;;;5033923;28;20204;-63
2022/05/16 04:15:25;;;;;;;12.90;4.13;;;;;;;;;;5032271;28;20204;-62
2022/05/16 04:17:50;;;;;;;9.48;3.60;;;;;;;;;;5014292;28;20706;-63
2022/05/16 04:20:16;;;;;;;12.77;4.32;;;;;;;;;;5013518;28;20209;-63
2022/05/16 04:22:42;;;;;;;14.40;4.57;;;;;;;;;;5013549;28;20212;-62
2022/05/16 04:25:08;;;;;;;14.38;4.18;;;;;;;;;;5013472;28;20208;-62
2022/05/16 04:27:33;;;;;;;9.70;3.50;;;;;;;;;;5013709;28;20216;-63
2022/05/16 04:29:58;;;;;;;11.05;4.00;;;;;;;;;;5013477;28;20231;-63
2022/05/16 04:32:24;;;;;;;10.25;3.80;;;;;;;;;;5018201;28;20250;-62
2022/05/16 04:34:49;;;;;;;11.85;4.25;;;;;;;;;;5033522;28;20212;-62
2022/05/16 04:37:15;;;;;;;11.48;4.07;;;;;;;;;;5032778;28;20207;-62
2022/05/16 04:39:40;;;;;;;9.98;3.65;;;;;;;;;;5033689;28;20211;-62
2022/05/16 04:44:49;;;;;;;12.63;4.05;;;;;;;;;;5033818;28;20720;-62
2022/05/16 04:47:14;;;;;;;11.55;3.70;;;;;;;;;;5029447;28;20196;-62
2022/05/16 04:49:40;;;;;;;12.77;4.20;;;;;;;;;;5012771;28;20625;-63
2022/05/16 04:52:06;;;;;;;11.10;3.85;;;;;;;;;;5013082;28;20225;-62
2022/05/16 04:54:31;;;;;;;16.70;3.75;;;;;;;;;;5013326;28;20730;-63
2022/05/16 04:56:56;;;;;;;12.23;3.72;;;;;;;;;;5013144;28;20307;-63
2022/05/16 04:59:21;;;;;;;10.02;3.90;;;;;;;;;;5013146;28;20212;-63
2022/05/16 05:01:47;;;;;;;11.77;3.65;;;;;;;;;;5013056;28;20224;-63
2022/05/16 05:04:12;;;;;;;11.57;3.65;;;;;;;;;;5010961;28;20211;-63
2022/05/16 05:06:39;;;;;;;11.85;4.18;;;;;;;;;;5013414;28;20263;-63
2022/05/16 05:09:04;;;;;;;11.23;4.00;;;;;;;;;;5012719;28;20208;-63
2022/05/16 05:16:57;;;;;;;11.65;4.20;;;;;;;;;;5012146;28;20749;-63
2022/05/16 05:19:22;;;;;;;7.97;3.55;;;;;;;;;;5011923;28;20232;-63
2022/05/16 05:21:47;;;;;;;12.75;3.80;;;;;;;;;;5013198;28;20698;-63
2022/05/16 05:24:12;;;;;;;8.93;3.80;;;;;;;;;;5010921;28;20204;-63
2022/05/16 05:26:39;;;;;;;10.63;4.03;;;;;;;;;;5013274;28;20213;-64
2022/05/16 05:29:04;;;;;;;10.02;3.65;;;;;;;;;;5012477;28;20213;-63
2022/05/16 05:31:30;;;;;;;11.98;4.07;;;;;;;;;;5012276;28;20262;-63
2022/05/16 05:33:55;;;;;;;12.18;3.97;;;;;;;;;;5028015;28;20205;-63
2022/05/16 05:36:20;;;;;;;12.77;4.80;;;;;;;;;;5030872;28;20270;-63
2022/05/16 05:38:51;;;;;;;12.10;3.85;;;;;;;;;;5032253;28;20637;-64
2022/05/16 05:41:16;;;;;;;11.82;4.30;;;;;;;;;;5032315;28;20207;-64
2022/05/16 05:43:41;;;;;;;11.57;4.18;;;;;;;;;;5032557;28;20333;-63
2022/05/16 05:46:06;;;;;;;10.50;3.97;;;;;;;;;;5031371;28;20269;-64
2022/05/16 05:48:32;;;;;;;12.27;4.68;;;;;;;;;;5032233;28;20207;-64
2022/05/16 05:50:57;;;;;;;11.85;4.57;;;;;;;;;;5031801;28;20234;-63
2022/05/16 05:53:22;;;;;;;11.43;4.50;;;;;;;;;;5031382;28;20591;-63
2022/05/16 05:55:47;;;;;;;9.88;4.03;;;;;;;;;;5032397;28;20208;-64
2022/05/16 05:58:14;;;;;;;14.38;3.83;;;;;;;;;;5032087;28;20208;-63
2022/05/16 06:00:39;;;;;;;9.35;4.13;;;;;;;;;;5040197;28;20569;-63
2022/05/16 06:03:04;;;;;;;10.88;4.30;;;;;;;;;;5033773;28;20248;-63
2022/05/16 06:05:29;;;;;;;15.18;4.40;;;;;;;;;;5051374;28;20207;-63
2022/05/16 06:07:55;;;;;;;11.75;4.43;;;;;;;;;;5051329;28;20211;-63
2022/05/16 06:10:20;;;;;;;10.05;4.47;;;;;;;;;;5051498;28;20306;-63
2022/05/16 06:12:45;;;;;;;10.98;4.40;;;;;;;;;;5051643;28;20214;-63
2022/05/16 06:15:11;;;;;;;11.35;4.45;;;;;;;;;;5043564;28;20215;-63
2022/05/16 06:17:36;;;;;;;10.77;4.63;;;;;;;;;;5031857;28;20254;-63
2022/05/16 06:20:03;;;;;;;11.05;4.72;;;;;;;;;;5046097;28;20676;-63
2022/05/16 06:22:34;;;;;;;13.50;4.63;;;;;;;;;;5031164;28;20222;-63
2022/05/16 06:27:43;;;;;;;12.18;4.95;;;;;;;;;;5031095;28;20277;-64
2022/05/16 06:30:11;;;;;;;11.80;4.88;;;;;;;;;;5030944;28;20698;-63
2022/05/16 06:32:36;;;;;;;12.65;4.70;;;;;;;;;;5037591;28;20237;-64
2022/05/16 06:35:01;;;;;;;11.15;4.35;;;;;;;;;;5050574;28;20729;-63
2022/05/16 06:37:26;;;;;;;11.15;4.75;;;;;;;;;;5051497;28;20217;-63
2022/05/16 06:39:52;;;;;;;10.70;4.28;;;;;;;;;;5051439;28;20588;-64
2022/05/16 06:42:17;;;;;;;15.25;4.57;;;;;;;;;;5050387;28;20203;-64
2022/05/16 06:44:42;;;;;;;13.60;4.55;;;;;;;;;;5051250;28;20221;-63
2022/05/16 06:47:08;;;;;;;10.45;4.65;;;;;;;;;;5048038;28;20200;-63
2022/05/16 06:49:33;;;;;;;12.00;4.60;;;;;;;;;;5030754;28;20215;-63
2022/05/16 06:51:58;;;;;;;11.95;4.45;;;;;;;;;;5031346;28;20211;-63
2022/05/16 06:54:24;;;;;;;11.90;4.38;;;;;;;;;;5031280;28;20609;-63
2022/05/16 06:56:49;;;;;;;11.73;4.45;;;;;;;;;;5030973;28;20215;-63
2022/05/16 06:59:14;;;;;;;11.20;4.68;;;;;;;;;;5030700;28;20671;-64
2022/05/16 07:01:39;;;;;;;11.32;4.43;;;;;;;;;;5030728;28;20657;-64
2022/05/16 07:04:05;;;;;;;12.57;4.65;;;;;;;;;;5030151;28;20219;-63
2022/05/16 07:06:30;;;;;;;11.55;4.72;;;;;;;;;;5031051;28;20212;-63
2022/05/16 07:08:55;;;;;;;13.02;4.80;;;;;;;;;;5031213;28;20212;-63
2022/05/16 07:11:21;;;;;;;12.23;4.55;;;;;;;;;;5030204;28;20219;-63
2022/05/16 07:13:46;;;;;;;11.98;4.78;;;;;;;;;;5031363;28;20219;-63
2022/05/16 07:16:11;;;;;;;9.88;4.50;;;;;;;;;;5017311;28;20334;-63
2022/05/16 07:18:36;;;;;;;10.95;4.35;;;;;;;;;;5010866;28;20220;-63
2022/05/16 07:21:02;;;;;;;10.85;4.38;;;;;;;;;;5010839;28;20215;-63
2022/05/16 07:23:27;;;;;;;11.52;4.78;;;;;;;;;;5011284;28;20624;-63
2022/05/16 07:28:37;;;;;;;13.52;4.80;;;;;;;;;;5014843;28;20226;-63
2022/05/16 07:31:02;;;;;;;14.05;4.57;;;;;;;;;;4996710;28;20593;-63
2022/05/16 07:33:27;;;;;;;10.32;4.60;;;;;;;;;;5028488;28;20663;-63
2022/05/16 07:35:55;;;;;;;13.85;4.90;;;;;;;;;;5034750;28;20216;-63
2022/05/16 07:38:20;;;;;;;11.32;4.70;;;;;;;;;;5034070;28;20235;-63
2022/05/16 07:40:45;;;;;;;11.25;4.85;;;;;;;;;;5035006;28;20778;-64
2022/05/16 07:43:11;;;;;;;14.02;4.65;;;;;;;;;;5033935;28;20211;-64
2022/05/16 07:45:36;;;;;;;13.35;4.85;;;;;;;;;;5034053;28;20216;-64
2022/05/16 07:48:03;;;;;;;13.73;5.18;;;;;;;;;;5024450;28;20631;-63
2022/05/16 07:50:28;;;;;;;13.25;4.70;;;;;;;;;;5015063;28;20239;-64
2022/05/16 07:52:54;;;;;;;10.00;4.28;;;;;;;;;;5014222;28;20667;-63
2022/05/16 07:55:20;;;;;;;14.35;5.00;;;;;;;;;;5015027;28;20675;-63
2022/05/16 07:57:46;;;;;;;13.15;5.03;;;;;;;;;;5014555;28;20223;-63
2022/05/16 08:00:11;;;;;;;16.88;4.57;;;;;;;;;;5018276;28;20235;-63
2022/05/16 08:02:38;;;;;;;12.15;4.80;;;;;;;;;;5034050;28;20543;-64
2022/05/16 08:05:03;;;;;;;13.20;4.60;;;;;;;;;;5016485;28;20583;-63
2022/05/16 08:07:29;;;;;;;14.07;4.85;;;;;;;;;;5033782;28;20220;-63
2022/05/16 08:12:39;;;;;;;11.85;4.93;;;;;;;;;;5033505;28;20301;-63
2022/05/16 08:15:04;;;;;;;15.52;5.07;;;;;;;;;;5029539;28;20221;-63
2022/05/16 08:17:30;;;;;;;13.63;4.80;;;;;;;;;;5014258;28;20212;-63
2022/05/16 08:19:56;;;;;;;12.60;4.22;;;;;;;;;;5014814;28;20208;-63
2022/05/16 08:22:26;;;;;;;12.07;5.00;;;;;;;;;;5013625;28;20228;-64
2022/05/16 08:24:52;;;;;;;13.40;4.57;;;;;;;;;;5013899;28;20291;-63
2022/05/16 08:27:17;;;;;;;12.55;5.20;;;;;;;;;;5013409;28;20304;-63
2022/05/16 08:29:42;;;;;;;10.88;4.88;;;;;;;;;;5014037;28;20209;-63
2022/05/16 08:32:08;;;;;;;14.13;5.20;;;;;;;;;;5016209;28;20220;-63
2022/05/16 08:34:33;;;;;;;14.93;5.00;;;;;;;;;;5048833;28;20732;-63
2022/05/16 08:39:52;;;;;;;9.77;4.68;;;;;;;;;;5033072;28;20253;-63
2022/05/16 08:42:18;;;;;;;11.88;4.78;;;;;;;;;;5032660;28;20261;-63
2022/05/16 08:44:45;;;;;;;13.30;4.60;;;;;;;;;;5033946;28;20216;-63
2022/05/16 08:47:17;;;;;;;9.05;4.47;;;;;;;;;;5045867;28;20295;-63
2022/05/16 08:49:44;;;;;;;10.93;4.43;;;;;;;;;;5013516;28;20209;-63
2022/05/16 08:52:11;;;;;;;11.13;4.57;;;;;;;;;;5013004;28;20626;-63
2022/05/16 08:54:40;;;;;;;16.30;5.38;;;;;;;;;;5028649;28;20292;-64
2022/05/16 08:57:06;;;;;;;11.55;4.78;;;;;;;;;;5012559;28;20219;-63
2022/05/16 08:59:31;;;;;;;10.73;4.82;;;;;;;;;;5028882;28;20212;-63
2022/05/16 09:02:00;;;;;;;13.25;5.43;;;;;;;;;;5028824;28;20255;-63
2022/05/16 09:04:26;;;;;;;11.70;5.05;;;;;;;;;;5028011;28;20208;-63
2022/05/16 09:06:52;;;;;;;16.50;4.93;;;;;;;;;;5028329;28;20212;-63
2022/05/16 09:09:18;;;;;;;10.02;4.72;;;;;;;;;;5012068;28;20218;-63
2022/05/16 09:11:46;;;;;;;11.98;4.63;;;;;;;;;;5013278;28;20880;-63
2022/05/16 09:14:19;;;;;;;11.00;4.95;;;;;;;;;;5028287;28;20209;-63
2022/05/16 09:16:50;;;;;;;9.45;4.50;;;;;;;;;;5047978;28;20207;-63
2022/05/16 09:19:33;;;;;;;13.00;5.35;;;;;;;;;;5047687;28;20219;-63
2022/05/16 09:22:04;;;;;;;11.75;5.57;;;;;;;;;;5032669;28;20438;-63
2022/05/16 09:24:35;;;;;;;12.55;5.30;;;;;;;;;;5032076;28;20265;-63
2022/05/16 09:27:02;;;;;;;11.13;5.35;;;;;;;;;;5032796;28;20219;-62
2022/05/16 09:29:28;;;;;;;6.50;3.63;;;;;;;;;;5032852;28;20215;-63
2022/05/16 09:31:56;;;;;;;6.45;3.50;;;;;;;;;;5031474;28;20579;-64
2022/05/16 09:34:22;;;;;;;9.68;3.33;;;;;;;;;;5027526;28;20212;-63
2022/05/16 09:36:49;;;;;;;7.35;3.28;;;;;;;;;;5012702;28;20220;-63
2022/05/16 09:39:18;;;;;;;8.30;3.03;;;;;;;;;;5011759;28;20216;-63
2022/05/16 09:41:44;;;;;;;9.63;3.25;;;;;;;;;;5012711;28;20208;-63
2022/05/16 09:44:11;;;;;;;7.57;3.60;;;;;;;;;;5012324;28;20339;-63
2022/05/16 09:46:37;;;;;;;7.22;3.20;;;;;;;;;;5012175;28;20213;-64
2022/05/16 09:49:05;;;;;;;11.85;3.63;;;;;;;;;;5028556;28;20215;-63
2022/05/16 09:51:30;;;;;;;12.82;3.97;;;;;;;;;;5031814;28;20216;-63
2022/05/16 09:53:57;;;;;;;6.70;3.20;;;;;;;;;;5032400;28;20206;-64
2022/05/16 09:56:30;;;;;;;6.90;3.75;;;;;;;;;;5030618;28;20211;-63
2022/05/16 09:59:00;;;;;;;8.65;4.00;;;;;;;;;;5031417;28;20287;-63
2022/05/16 10:01:28;;;;;;;8.48;3.22;;;;;;;;;;5015443;28;20244;-63
2022/05/16 10:03:54;;;;;;;9.75;3.70;;;;;;;;;;5012168;28;20208;-63
2022/05/16 10:06:27;;;;;;;13.02;3.90;;;;;;;;;;5011749;28;20295;-63
2022/05/16 10:08:52;;;;;;;8.38;3.85;;;;;;;;;;4994741;28;20213;-64
2022/05/16 10:11:18;;;;;;;10.88;3.70;;;;;;;;;;5011568;28;20307;-63
2022/05/16 10:13:44;;;;;;;9.05;3.40;;;;;;;;;;5011424;28;20672;-64
2022/05/16 10:16:09;;;;;;;11.25;4.55;;;;;;;;;;5000833;28;20203;-63
2022/05/16 10:18:37;;;;;;;12.15;3.75;;;;;;;;;;5014045;28;20242;-63
2022/05/16 10:21:04;;;;;;;8.30;3.88;;;;;;;;;;5013493;28;20208;-63
2022/05/16 10:23:33;;;;;;;8.23;3.78;;;;;;;;;;5031949;28;20231;-64
2022/05/16 10:26:00;;;;;;;11.20;3.65;;;;;;;;;;5013480;28;20609;-63
2022/05/16 10:28:33;;;;;;;10.02;3.38;;;;;;;;;;4993584;28;20207;-63
2022/05/16 10:33:42;;;;;;;9.95;3.65;;;;;;;;;;5000771;28;20219;-64
2022/05/16 10:36:08;;;;;;;5.55;3.25;;;;;;;;;;5011613;28;20583;-64
2022/05/16 10:38:36;;;;;;;8.60;3.72;;;;;;;;;;5011410;28;20266;-63
2022/05/16 10:41:01;;;;;;;6.90;3.22;;;;;;;;;;4993112;28;20968;-63
2022/05/16 10:43:29;;;;;;;8.30;3.40;;;;;;;;;;4994149;28;20299;-63
2022/05/16 10:45:57;;;;;;;8.65;3.20;;;;;;;;;;5011868;28;20373;-64
2022/05/16 10:48:27;;;;;;;8.77;3.30;;;;;;;;;;5004357;28;20215;-63
2022/05/16 10:50:54;;;;;;;9.43;3.40;;;;;;;;;;5013978;28;20219;-63
2022/05/16 10:53:22;;;;;;;8.07;3.20;;;;;;;;;;5012931;28;20239;-63
2022/05/16 10:55:47;;;;;;;11.10;4.18;;;;;;;;;;5013006;28;20231;-63
2022/05/16 10:58:15;;;;;;;8.40;3.20;;;;;;;;;;5030712;28;20232;-64
2022/05/16 11:00:41;;;;;;;11.00;3.65;;;;;;;;;;5014063;28;20239;-63
2022/05/16 11:03:10;;;;;;;9.23;3.78;;;;;;;;;;5050357;28;20238;-63
2022/05/16 11:05:39;;;;;;;9.73;4.20;;;;;;;;;;5033445;28;20211;-64
2022/05/16 11:08:09;;;;;;;10.40;5.30;;;;;;;;;;5032994;28;20261;-63
2022/05/16 11:10:36;;;;;;;9.10;4.03;;;;;;;;;;5024298;28;20305;-63
2022/05/16 11:13:07;;;;;;;11.65;4.90;;;;;;;;;;5032648;28;20215;-63
2022/05/16 11:15:34;;;;;;;8.60;4.65;;;;;;;;;;5023399;28;20208;-64
2022/05/16 11:18:03;;;;;;;10.65;4.82;;;;;;;;;;5046116;28;20212;-64
2022/05/16 11:20:37;;;;;;;8.27;3.75;;;;;;;;;;5022747;28;20226;-63
2022/05/16 11:23:04;;;;;;;8.63;4.00;;;;;;;;;;5045542;28;20545;-64
2022/05/16 11:25:33;;;;;;;10.02;3.90;;;;;;;;;;5046319;28;20214;-63
2022/05/16 11:28:07;;;;;;;11.85;3.92;;;;;;;;;;5046481;28;20202;-64
2022/05/16 11:30:41;;;;;;;7.78;3.80;;;;;;;;;;5010505;28;20220;-63
2022/05/16 11:33:17;;;;;;;12.38;3.58;;;;;;;;;;5003848;28;20245;-64
2022/05/16 11:35:45;;;;;;;8.82;3.65;;;;;;;;;;5013055;28;20261;-64
2022/05/16 11:38:15;;;;;;;10.18;3.97;;;;;;;;;;5030271;28;20203;-64
2022/05/16 11:41:00;;;;;;;6.47;3.35;;;;;;;;;;5030915;28;20219;-64
2022/05/16 11:43:26;;;;;;;12.27;3.85;;;;;;;;;;5030143;28;20215;-64
2022/05/16 11:46:12;;;;;;;9.25;3.95;;;;;;;;;;5030272;28;20690;-64
2022/05/16 11:48:43;;;;;;;10.60;4.22;;;;;;;;;;5035811;28;20706;-63
2022/05/16 11:51:21;;;;;;;10.65;4.15;;;;;;;;;;5028777;28;20220;-63
2022/05/16 11:53:49;;;;;;;9.07;3.63;;;;;;;;;;5030993;28;20215;-63
2022/05/16 12:02:07;;;;;;;10.32;3.88;;;;;;;;;;5030184;28;20295;-63
2022/05/16 12:04:35;;;;;;;11.00;3.80;;;;;;;;;;5030732;28;20708;-63
2022/05/16 12:07:02;;;;;;;10.35;3.40;;;;;;;;;;5029658;28;20597;-64
2022/05/16 12:09:31;;;;;;;11.85;4.15;;;;;;;;;;5030456;28;20325;-64
2022/05/16 12:11:56;;;;;;;14.65;7.35;;;;;;;;;;5032136;28;20281;-63
2022/05/16 12:14:29;;;;;;;13.77;7.75;;;;;;;;;;5033278;28;20237;-63
2022/05/16 12:16:57;;;;;;;16.23;7.40;;;;;;;;;;5015332;28;20299;-62
2022/05/16 12:19:25;;;;;;;15.45;7.78;;;;;;;;;;5013296;28;20205;-63
2022/05/16 12:21:59;;;;;;;12.55;7.53;;;;;;;;;;5014156;28;20687;-63
2022/05/16 12:24:25;;;;;;;17.85;7.40;;;;;;;;;;4996270;28;20278;-63
2022/05/16 12:27:01;;;;;;;13.45;6.03;;;;;;;;;;5013572;28;20540;-63
2022/05/16 12:29:37;;;;;;;13.55;6.07;;;;;;;;;;5013543;28;20924;-63
2022/05/16 12:32:03;;;;;;;8.57;4.90;;;;;;;;;;5015072;28;20306;-63
2022/05/16 12:34:29;;;;;;;10.30;4.60;;;;;;;;;;5015733;28;20283;-63
2022/05/16 12:36:56;;;;;;;11.07;4.90;;;;;;;;;;5033991;28;20325;-63
2022/05/16 12:39:27;;;;;;;7.68;4.15;;;;;;;;;;5033417;28;20234;-63
2022/05/16 12:41:57;;;;;;;8.93;4.65;;;;;;;;;;5032986;28;20210;-63
2022/05/16 12:44:35;;;;;;;10.00;5.78;;;;;;;;;;5014947;28;20219;-63
2022/05/16 12:47:19;;;;;;;14.18;6.47;;;;;;;;;;5032374;28;20800;-63
2022/05/16 12:50:02;;;;;;;11.52;6.50;;;;;;;;;;5014048;28;20200;-63
2022/05/16 12:52:46;;;;;;;14.05;6.63;;;;;;;;;;4992409;28;20247;-63
2022/05/16 12:55:17;;;;;;;8.23;5.95;;;;;;;;;;4993202;28;20800;-63
2022/05/16 12:57:48;;;;;;;10.13;5.60;;;;;;;;;;5009428;28;20695;-63
2022/05/16 13:00:19;;;;;;;11.02;6.03;;;;;;;;;;4993314;28;20261;-63
2022/05/16 13:02:54;;;;;;;8.35;5.53;;;;;;;;;;5014331;28;20227;-63
2022/05/16 13:05:26;;;;;;;13.27;6.15;;;;;;;;;;5012639;28;20227;-63
2022/05/16 13:07:52;;;;;;;8.15;5.60;;;;;;;;;;5028928;28;20219;-63
2022/05/16 13:10:20;;;;;;;10.55;5.68;;;;;;;;;;5012474;28;20592;-63
2022/05/16 13:12:49;;;;;;;12.23;6.00;;;;;;;;;;5013262;28;20212;-63
2022/05/16 13:15:24;;;;;;;11.35;5.75;;;;;;;;;;5035289;28;20571;-63
2022/05/16 13:17:53;;;;;;;10.40;5.88;;;;;;;;;;5033117;28;20213;-63
2022/05/16 13:20:19;;;;;;;10.98;6.28;;;;;;;;;;5047345;28;20254;-63
2022/05/16 13:22:45;;;;;;;9.65;5.70;;;;;;;;;;5032493;28;20615;-63
2022/05/16 13:25:10;;;;;;;11.88;6.55;;;;;;;;;;5032806;28;20258;-63
2022/05/16 13:30:21;;;;;;;12.90;7.53;;;;;;;;;;5031353;28;20708;-63
2022/05/16 13:32:46;;;;;;;11.07;7.32;;;;;;;;;;5024747;28;20215;-63
2022/05/16 13:35:12;;;;;;;11.55;7.35;;;;;;;;;;5012566;28;20216;-63
2022/05/16 13:37:45;;;;;;;11.38;7.05;;;;;;;;;;5012513;28;20243;-63
2022/05/16 13:40:14;;;;;;;11.57;6.90;;;;;;;;;;5012310;28;20303;-62
2022/05/16 13:42:43;;;;;;;12.85;7.40;;;;;;;;;;5012736;28;20299;-63
2022/05/16 13:45:08;;;;;;;12.73;9.23;;;;;;;;;;5011494;28;20263;-63
2022/05/16 13:47:37;;;;;;;15.82;10.85;;;;;;;;;;5018126;28;20216;-63
2022/05/16 13:50:03;;;;;;;15.43;12.13;;;;;;;;;;5047417;28;20785;-63
2022/05/16 13:52:30;;;;;;;16.42;12.45;;;;;;;;;;5032132;28;20224;-63
2022/05/16 13:54:56;;;;;;;17.13;13.07;;;;;;;;;;5032418;28;20211;-63
2022/05/16 13:57:23;;;;;;;14.88;11.90;;;;;;;;;;5031738;28;20212;-63
2022/05/16 13:59:49;;;;;;;15.80;10.60;;;;;;;;;;5031724;28;20212;-63
2022/05/16 14:02:15;;;;;;;12.80;9.50;;;;;;;;;;5031270;28;20239;-63
2022/05/16 14:04:47;;;;;;;15.55;9.32;;;;;;;;;;5032001;28;20207;-63
2022/05/16 14:07:13;;;;;;;14.30;9.40;;;;;;;;;;5047292;28;20234;-63
2022/05/16 14:09:42;;;;;;;12.70;7.50;;;;;;;;;;5031706;28;20568;-63
2022/05/16 14:12:09;;;;;;;12.07;7.18;;;;;;;;;;5030984;28;20227;-63
2022/05/16 14:14:34;;;;;;;10.45;7.00;;;;;;;;;;5029873;28;20204;-64
2022/05/16 14:17:02;;;;;;;14.15;6.50;;;;;;;;;;5031146;28;20580;-63
2022/05/16 14:19:37;;;;;;;13.13;7.00;;;;;;;;;;5031299;28;20662;-63
2022/05/16 14:22:10;;;;;;;13.52;6.47;;;;;;;;;;5031393;28;20222;-63
2022/05/16 14:24:47;;;;;;;13.40;6.47;;;;;;;;;;5031712;28;20203;-63
2022/05/16 14:27:22;;;;;;;11.85;6.65;;;;;;;;;;5045769;28;20581;-63
2022/05/16 14:29:58;;;;;;;13.20;6.00;;;;;;;;;;5039756;28;20733;-64
2022/05/16 14:32:23;;;;;;;14.77;6.68;;;;;;;;;;5026433;28;20208;-63
2022/05/16 14:34:48;;;;;;;13.25;5.88;;;;;;;;;;5010930;28;20555;-63
2022/05/16 14:37:13;;;;;;;12.75;5.97;;;;;;;;;;5026181;28;20236;-62
2022/05/16 14:39:41;;;;;;;12.57;6.13;;;;;;;;;;5011735;28;20278;-63
2022/05/16 14:42:08;;;;;;;12.63;6.30;;;;;;;;;;5010912;28;20204;-63
2022/05/16 14:44:35;;;;;;;16.90;6.10;;;;;;;;;;5027205;28;20212;-63
2022/05/16 14:47:02;;;;;;;14.60;6.10;;;;;;;;;;5012332;28;20240;-63
2022/05/16 14:49:28;;;;;;;13.57;6.32;;;;;;;;;;5050905;28;20622;-63
2022/05/16 14:51:53;;;;;;;10.25;5.57;;;;;;;;;;5050858;28;20250;-63
2022/05/16 14:54:23;;;;;;;17.33;6.35;;;;;;;;;;5050417;28;20249;-65
2022/05/16 14:56:48;;;;;;;18.88;6.30;;;;;;;;;;5051431;28;20277;-63
2022/05/16 14:59:14;;;;;;;14.32;6.00;;;;;;;;;;5050841;28;20203;-63
2022/05/16 15:04:23;;;;;;;16.35;6.45;;;;;;;;;;5032172;28;20611;-63
2022/05/16 15:06:48;;;;;;;11.43;5.75;;;;;;;;;;5037941;28;20215;-63
2022/05/16 15:09:14;;;;;;;12.70;5.85;;;;;;;;;;5036568;28;20207;-63
2022/05/16 15:11:42;;;;;;;12.55;6.20;;;;;;;;;;5043284;28;20234;-63
2022/05/16 15:14:08;;;;;;;23.63;6.82;;;;;;;;;;5045119;28;20277;-63
2022/05/16 15:16:33;;;;;;;16.35;6.72;;;;;;;;;;5044939;28;20214;-63